Time;durP1;ratioP1;P1;durP2;ratioP2;P2;SDS_P1;SDS_P2;PMS_P1;PMS_P2;Temp;Humidity;BMP_temperature;BMP_pressure;BME280_temperature;BME280_humidity;BME280_pressure;Samples;Min_cycle;Max_cycle;Signal;HPM_P1;HPM_P2
2024/04/02 00:00:34;;;;;;;11.82;5.85;;;9.00;99.90;;;;;;5012080;28;20087;-73
2024/04/02 00:03:00;;;;;;;14.25;5.75;;;9.00;99.90;;;;;;5011677;28;20494;-72
2024/04/02 00:05:26;;;;;;;12.57;5.85;;;9.00;99.90;;;;;;5012155;28;20044;-72
2024/04/02 00:07:51;;;;;;;12.40;5.90;;;8.90;99.90;;;;;;5011830;28;20041;-72
2024/04/02 00:10:17;;;;;;;14.02;6.32;;;8.90;99.90;;;;;;5012013;28;20026;-71
2024/04/02 00:12:42;;;;;;;13.50;6.28;;;8.90;99.90;;;;;;5011936;28;20053;-71
2024/04/02 00:15:08;;;;;;;11.48;5.97;;;8.90;99.90;;;;;;5010669;28;20026;-71
2024/04/02 00:17:33;;;;;;;13.25;6.82;;;8.90;99.90;;;;;;5011842;28;20074;-71
2024/04/02 00:20:04;;;;;;;16.45;7.47;;;8.80;99.90;;;;;;5011691;28;20027;-73
2024/04/02 00:22:30;;;;;;;15.82;6.95;;;8.80;99.90;;;;;;5011694;28;20027;-71
2024/04/02 00:24:55;;;;;;;12.68;6.80;;;8.80;99.90;;;;;;5012059;28;21457;-72
2024/04/02 00:27:21;;;;;;;15.05;7.20;;;8.70;99.90;;;;;;5011933;28;20022;-73
2024/04/02 00:29:46;;;;;;;15.48;6.78;;;8.70;99.90;;;;;;5011684;28;20046;-72
2024/04/02 00:32:12;;;;;;;15.25;6.95;;;8.70;99.90;;;;;;5011874;28;20086;-72
2024/04/02 00:34:42;;;;;;;18.63;7.20;;;8.70;99.90;;;;;;5010449;28;20033;-72
2024/04/02 00:37:09;;;;;;;17.27;7.15;;;8.70;99.90;;;;;;5011993;28;20022;-71
2024/04/02 00:39:36;;;;;;;16.05;7.05;;;8.70;99.90;;;;;;5011516;28;20151;-71
2024/04/02 00:42:03;;;;;;;13.73;7.60;;;8.70;99.90;;;;;;5010545;28;20034;-72
2024/04/02 00:44:29;;;;;;;15.88;6.75;;;8.70;99.90;;;;;;5011504;28;20056;-72
2024/04/02 00:46:54;;;;;;;13.25;7.00;;;8.70;99.90;;;;;;5011431;28;20530;-71
2024/04/02 00:49:21;;;;;;;17.80;6.88;;;8.70;99.90;;;;;;5011796;28;20069;-72
2024/04/02 00:51:46;;;;;;;11.57;6.40;;;8.70;99.90;;;;;;5011673;28;20083;-72
2024/04/02 00:54:13;;;;;;;12.63;6.30;;;8.70;99.90;;;;;;5011201;28;20034;-71
2024/04/02 00:56:41;;;;;;;14.05;6.75;;;8.70;99.90;;;;;;5010330;28;20114;-73
2024/04/02 00:59:06;;;;;;;20.92;6.75;;;8.70;99.90;;;;;;5011047;28;20098;-71
2024/04/02 01:01:32;;;;;;;13.40;6.60;;;8.70;99.90;;;;;;5010999;28;20030;-72
2024/04/02 01:03:59;;;;;;;12.27;5.88;;;8.60;99.90;;;;;;5011473;28;20084;-72
2024/04/02 01:06:25;;;;;;;14.35;6.78;;;8.70;99.90;;;;;;5012243;28;20049;-72
2024/04/02 01:08:51;;;;;;;15.27;7.05;;;8.70;99.90;;;;;;5014973;28;20049;-72
2024/04/02 01:11:17;;;;;;;15.38;6.30;;;8.60;99.90;;;;;;5015050;28;20026;-73
2024/04/02 01:13:43;;;;;;;9.35;5.93;;;8.60;99.90;;;;;;5014615;28;20022;-74
2024/04/02 01:16:11;;;;;;;11.55;6.53;;;8.60;99.90;;;;;;5013898;28;20049;-72
2024/04/02 01:18:37;;;;;;;13.25;6.95;;;8.60;99.90;;;;;;5015151;28;20062;-72
2024/04/02 01:21:03;;;;;;;14.40;6.63;;;8.60;99.90;;;;;;5013067;28;20033;-73
2024/04/02 01:23:29;;;;;;;19.52;7.57;;;8.60;99.90;;;;;;5015013;28;20027;-72
2024/04/02 01:25:54;;;;;;;14.48;7.32;;;8.60;99.90;;;;;;5014987;28;20387;-71
2024/04/02 01:28:20;;;;;;;15.20;6.60;;;8.60;99.90;;;;;;5012614;28;20050;-71
2024/04/02 01:30:46;;;;;;;14.05;7.15;;;8.50;99.90;;;;;;5014819;28;20488;-73
2024/04/02 01:33:14;;;;;;;15.68;7.50;;;8.50;99.90;;;;;;5014562;28;20046;-72
2024/04/02 01:35:40;;;;;;;15.60;7.25;;;8.50;99.90;;;;;;5014303;28;20030;-73
2024/04/02 01:38:06;;;;;;;16.17;7.20;;;8.50;99.90;;;;;;5014851;28;20048;-71
2024/04/02 01:40:31;;;;;;;13.23;7.65;;;8.50;99.90;;;;;;5013134;28;20033;-71
2024/04/02 01:42:57;;;;;;;13.02;7.35;;;8.40;99.90;;;;;;5014184;28;20022;-72
2024/04/02 01:45:22;;;;;;;17.13;7.43;;;8.40;99.90;;;;;;5013109;28;20034;-71
2024/04/02 01:47:48;;;;;;;14.70;6.90;;;8.40;99.90;;;;;;5014546;28;20674;-72
2024/04/02 01:50:13;;;;;;;16.65;7.50;;;8.40;99.90;;;;;;5014148;28;20100;-72
2024/04/02 01:52:39;;;;;;;12.73;6.95;;;8.40;99.90;;;;;;5014243;28;20033;-73
2024/04/02 01:55:04;;;;;;;14.55;7.28;;;8.50;99.90;;;;;;5014250;28;20025;-72
2024/04/02 01:57:30;;;;;;;17.35;7.00;;;8.40;99.90;;;;;;5013791;28;20034;-72
2024/04/02 01:59:55;;;;;;;15.93;7.40;;;8.30;99.90;;;;;;5014524;28;20072;-73
2024/04/02 02:02:21;;;;;;;16.70;7.38;;;8.30;99.90;;;;;;5013629;28;20054;-72
2024/04/02 02:04:47;;;;;;;14.38;7.80;;;8.30;99.90;;;;;;5012634;28;20038;-72
2024/04/02 02:07:12;;;;;;;13.98;7.55;;;8.30;99.90;;;;;;5014105;28;20029;-71
2024/04/02 02:09:38;;;;;;;15.48;7.25;;;8.30;99.90;;;;;;5013773;28;20038;-72
2024/04/02 02:12:04;;;;;;;14.50;7.32;;;8.30;99.90;;;;;;5014221;28;20034;-71
2024/04/02 02:14:29;;;;;;;17.30;7.75;;;8.30;99.90;;;;;;5013620;28;20038;-71
2024/04/02 02:16:55;;;;;;;15.82;8.25;;;8.30;99.90;;;;;;5012566;28;20029;-71
2024/04/02 02:19:20;;;;;;;20.05;7.95;;;8.20;99.90;;;;;;5012559;28;20121;-72
2024/04/02 02:21:47;;;;;;;16.77;8.63;;;8.20;99.90;;;;;;5013466;28;20031;-72
2024/04/02 02:24:13;;;;;;;16.10;8.48;;;8.20;99.90;;;;;;5012451;28;20033;-71
2024/04/02 02:26:38;;;;;;;17.33;8.60;;;8.20;99.90;;;;;;5013613;28;20034;-70
2024/04/02 02:29:04;;;;;;;14.75;7.95;;;8.20;99.90;;;;;;5013391;28;20046;-70
2024/04/02 02:31:29;;;;;;;14.63;7.97;;;8.20;99.90;;;;;;5013180;28;20021;-70
2024/04/02 02:33:55;;;;;;;17.92;8.30;;;8.20;99.90;;;;;;5013345;28;20026;-72
2024/04/02 02:36:20;;;;;;;14.93;7.82;;;8.20;99.90;;;;;;5012656;28;20038;-72
2024/04/02 02:38:46;;;;;;;16.25;7.50;;;8.20;99.90;;;;;;5013304;28;20037;-71
2024/04/02 02:41:12;;;;;;;15.77;8.23;;;8.20;99.90;;;;;;5012007;28;20026;-72
2024/04/02 02:43:38;;;;;;;16.85;8.35;;;8.20;99.90;;;;;;5013019;28;20022;-71
2024/04/02 02:46:03;;;;;;;18.85;7.97;;;8.10;99.90;;;;;;5013210;28;20053;-70
2024/04/02 02:48:29;;;;;;;16.83;8.52;;;8.20;99.90;;;;;;5013433;28;20042;-71
2024/04/02 02:50:55;;;;;;;15.82;8.50;;;8.10;99.90;;;;;;5012826;28;21459;-72
2024/04/02 02:53:20;;;;;;;16.95;8.85;;;8.10;99.90;;;;;;5012970;28;20038;-72
2024/04/02 02:55:54;;;;;;;14.82;8.10;;;8.10;99.90;;;;;;5013056;28;20050;-72
2024/04/02 02:58:20;;;;;;;15.75;9.07;;;8.00;99.90;;;;;;5012758;28;20018;-73
2024/04/02 03:00:45;;;;;;;17.30;8.70;;;8.00;99.90;;;;;;5012924;28;20033;-71
2024/04/02 03:03:11;;;;;;;16.45;8.77;;;8.00;99.90;;;;;;5012704;28;20050;-72
2024/04/02 03:05:36;;;;;;;19.70;9.77;;;8.00;99.90;;;;;;5012531;28;20076;-72
2024/04/02 03:08:02;;;;;;;17.70;8.98;;;8.00;99.90;;;;;;5013125;28;20034;-71
2024/04/02 03:10:28;;;;;;;15.07;8.68;;;8.00;99.90;;;;;;5011181;28;20026;-71
2024/04/02 03:12:53;;;;;;;18.98;9.90;;;8.00;99.90;;;;;;5012665;28;20026;-71
2024/04/02 03:15:19;;;;;;;20.48;9.40;;;8.00;99.90;;;;;;5013062;28;20033;-71
2024/04/02 03:17:44;;;;;;;20.25;10.15;;;8.00;99.90;;;;;;5012671;28;20125;-71
2024/04/02 03:20:11;;;;;;;16.33;9.55;;;8.10;99.90;;;;;;5011292;28;20156;-71
2024/04/02 03:22:36;;;;;;;17.17;8.90;;;8.10;99.90;;;;;;5011212;28;20462;-72
2024/04/02 03:25:02;;;;;;;17.60;9.75;;;8.10;99.90;;;;;;5012431;28;20053;-71
2024/04/02 03:27:29;;;;;;;20.92;10.25;;;8.10;99.90;;;;;;5012275;28;20017;-72
2024/04/02 03:29:55;;;;;;;18.05;9.40;;;8.20;99.90;;;;;;5012356;28;20076;-70
2024/04/02 03:32:21;;;;;;;21.27;9.88;;;8.20;99.90;;;;;;5012255;28;20061;-71
2024/04/02 03:34:46;;;;;;;18.00;9.48;;;8.30;99.90;;;;;;5012429;28;20030;-72
2024/04/02 03:37:12;;;;;;;16.92;9.82;;;8.20;99.90;;;;;;5012714;28;20040;-71
2024/04/02 03:39:37;;;;;;;20.75;10.63;;;8.20;99.90;;;;;;5011808;28;20045;-72
2024/04/02 03:42:03;;;;;;;18.08;10.43;;;8.20;99.90;;;;;;5011979;28;20034;-71
2024/04/02 03:44:29;;;;;;;20.65;11.15;;;8.20;99.90;;;;;;5012586;28;20036;-72
2024/04/02 03:46:56;;;;;;;17.95;9.90;;;8.20;99.90;;;;;;5011104;28;20021;-71
2024/04/02 03:49:22;;;;;;;20.95;11.27;;;8.20;99.90;;;;;;5011064;28;20034;-73
2024/04/02 03:51:48;;;;;;;18.95;10.30;;;8.10;99.90;;;;;;5012026;28;20035;-71
2024/04/02 03:54:15;;;;;;;20.30;11.07;;;8.10;99.90;;;;;;5011797;28;20383;-71
2024/04/02 03:56:41;;;;;;;22.00;11.73;;;8.10;99.90;;;;;;5012582;28;20046;-72
2024/04/02 03:59:06;;;;;;;23.35;11.27;;;8.10;99.90;;;;;;5011815;28;20033;-71
2024/04/02 04:01:32;;;;;;;20.35;11.32;;;8.10;99.90;;;;;;5011859;28;20034;-72
2024/04/02 04:03:58;;;;;;;20.70;11.23;;;8.10;99.90;;;;;;5012001;28;20101;-71
2024/04/02 04:06:24;;;;;;;20.40;10.75;;;8.10;99.90;;;;;;5011610;28;20032;-70
2024/04/02 04:08:49;;;;;;;21.90;11.02;;;8.10;99.90;;;;;;5011843;28;20042;-71
2024/04/02 04:11:15;;;;;;;21.63;12.60;;;8.10;99.90;;;;;;5012528;28;20041;-71
2024/04/02 04:13:41;;;;;;;23.80;13.15;;;8.00;99.90;;;;;;5011641;28;20104;-71
2024/04/02 04:16:07;;;;;;;24.13;12.35;;;8.10;99.90;;;;;;5011717;28;20153;-71
2024/04/02 04:18:33;;;;;;;22.92;12.35;;;8.20;99.90;;;;;;5012352;28;20034;-72
2024/04/02 04:21:02;;;;;;;24.70;12.43;;;8.20;99.90;;;;;;5008795;28;20026;-72
2024/04/02 04:23:28;;;;;;;23.05;12.65;;;8.20;99.90;;;;;;5012635;28;20061;-74
2024/04/02 04:25:56;;;;;;;24.58;12.35;;;8.20;99.90;;;;;;5011258;28;20022;-73
2024/04/02 04:28:22;;;;;;;25.45;12.80;;;8.20;99.90;;;;;;5012272;28;20084;-73
2024/04/02 04:30:54;;;;;;;25.17;13.40;;;8.20;99.90;;;;;;5010808;28;20442;-73
2024/04/02 04:33:20;;;;;;;24.80;12.48;;;8.20;99.90;;;;;;5011996;28;20101;-74
2024/04/02 04:35:47;;;;;;;25.70;12.80;;;8.10;99.90;;;;;;5010566;28;20045;-74
2024/04/02 04:38:13;;;;;;;25.73;12.35;;;8.10;99.90;;;;;;5013371;28;20034;-74
2024/04/02 04:40:40;;;;;;;26.63;14.23;;;8.10;99.90;;;;;;5013954;28;20101;-72
2024/04/02 04:43:06;;;;;;;26.98;13.57;;;8.10;99.90;;;;;;5015405;28;20026;-73
2024/04/02 04:45:32;;;;;;;25.30;12.90;;;8.10;99.90;;;;;;5015848;28;20046;-74
2024/04/02 04:47:58;;;;;;;24.23;13.30;;;8.10;99.90;;;;;;5015391;28;20041;-74
2024/04/02 04:50:24;;;;;;;28.95;13.65;;;8.00;99.90;;;;;;5014243;28;20032;-73
2024/04/02 04:52:51;;;;;;;24.25;11.65;;;8.10;99.90;;;;;;5015212;28;20041;-72
2024/04/02 04:55:17;;;;;;;25.92;13.18;;;8.00;99.90;;;;;;5015975;28;20151;-74
2024/04/02 04:57:43;;;;;;;24.38;12.50;;;8.00;99.90;;;;;;5014981;28;20014;-74
2024/04/02 05:00:09;;;;;;;22.77;12.25;;;8.00;99.90;;;;;;5015631;28;20987;-72
2024/04/02 05:02:34;;;;;;;26.55;12.98;;;8.00;99.90;;;;;;5015442;28;20088;-73
2024/04/02 05:05:00;;;;;;;19.75;12.50;;;8.00;99.90;;;;;;5014530;28;20073;-72
2024/04/02 05:07:25;;;;;;;23.45;12.57;;;8.00;99.90;;;;;;5014409;28;20064;-73
2024/04/02 05:09:51;;;;;;;24.55;12.95;;;8.00;99.90;;;;;;5014585;28;20072;-73
2024/04/02 05:12:18;;;;;;;27.40;12.18;;;7.90;99.90;;;;;;5014988;28;20022;-73
2024/04/02 05:14:44;;;;;;;26.83;12.07;;;7.90;99.90;;;;;;5013625;28;20053;-72
2024/04/02 05:17:10;;;;;;;21.95;11.38;;;7.90;99.90;;;;;;5014928;28;20026;-73
2024/04/02 05:19:35;;;;;;;22.35;12.00;;;7.90;99.90;;;;;;5013790;28;20030;-73
2024/04/02 05:22:01;;;;;;;20.35;11.32;;;7.90;99.90;;;;;;5014793;28;20053;-74
2024/04/02 05:24:27;;;;;;;22.27;11.93;;;7.90;99.90;;;;;;5014417;28;20026;-74
2024/04/02 05:26:52;;;;;;;21.83;11.85;;;7.90;99.90;;;;;;5014852;28;20395;-73
2024/04/02 05:29:18;;;;;;;19.05;9.55;;;7.90;99.90;;;;;;5013740;28;20475;-76
2024/04/02 05:31:44;;;;;;;21.45;11.57;;;8.00;99.90;;;;;;5014329;28;20090;-76
2024/04/02 05:34:09;;;;;;;25.77;11.65;;;7.90;99.90;;;;;;5013852;28;20033;-74
2024/04/02 05:36:35;;;;;;;20.85;11.52;;;8.00;99.90;;;;;;5014110;28;20029;-73
2024/04/02 05:39:01;;;;;;;20.23;11.38;;;8.00;99.90;;;;;;5013148;28;20057;-73
2024/04/02 05:41:26;;;;;;;20.92;10.82;;;8.00;99.90;;;;;;5014430;28;20110;-73
2024/04/02 05:43:52;;;;;;;19.23;11.25;;;8.00;99.90;;;;;;5014073;28;20022;-75
2024/04/02 05:46:17;;;;;;;17.98;10.70;;;8.00;99.90;;;;;;5012001;28;20040;-73
2024/04/02 05:48:46;;;;;;;21.67;9.88;;;8.00;99.90;;;;;;5014328;28;20111;-75
2024/04/02 05:51:12;;;;;;;22.80;11.10;;;8.00;99.90;;;;;;5012264;28;20029;-75
2024/04/02 05:53:38;;;;;;;17.30;9.95;;;8.00;99.90;;;;;;5011293;28;20030;-74
2024/04/02 05:56:05;;;;;;;20.45;10.48;;;8.10;99.90;;;;;;5011572;28;20029;-74
2024/04/02 05:58:31;;;;;;;22.02;10.05;;;8.10;99.90;;;;;;5010602;28;20798;-75
2024/04/02 06:01:07;;;;;;;20.52;10.05;;;8.10;99.90;;;;;;5013648;28;20033;-75
2024/04/02 06:03:33;;;;;;;21.90;9.60;;;8.10;99.90;;;;;;5011604;28;20050;-74
2024/04/02 06:06:00;;;;;;;19.80;9.80;;;8.20;99.90;;;;;;5013106;28;20066;-74
2024/04/02 06:08:26;;;;;;;15.27;7.65;;;8.20;99.90;;;;;;5013927;28;20041;-75
2024/04/02 06:10:51;;;;;;;16.10;8.68;;;8.20;99.90;;;;;;5013377;28;20022;-74
2024/04/02 06:13:17;;;;;;;17.70;9.68;;;8.30;99.90;;;;;;5013927;28;20386;-74
2024/04/02 06:15:42;;;;;;;17.15;8.85;;;8.30;99.90;;;;;;5012354;28;20029;-75
2024/04/02 06:18:09;;;;;;;18.35;9.38;;;8.30;99.90;;;;;;5012120;28;20022;-74
2024/04/02 06:20:34;;;;;;;15.20;8.50;;;8.40;99.90;;;;;;5013838;28;20063;-73
2024/04/02 06:23:00;;;;;;;16.35;8.55;;;8.40;99.90;;;;;;5012226;28;20066;-73
2024/04/02 06:25:26;;;;;;;17.15;8.32;;;8.50;99.90;;;;;;5013193;28;20196;-73
2024/04/02 06:27:51;;;;;;;15.85;7.72;;;8.50;99.90;;;;;;5013528;28;20026;-75
2024/04/02 06:30:17;;;;;;;14.77;7.40;;;8.60;99.90;;;;;;5014075;28;20418;-74
2024/04/02 06:32:42;;;;;;;13.10;7.20;;;8.60;99.90;;;;;;5012064;28;20479;-76
2024/04/02 06:35:08;;;;;;;13.93;7.82;;;8.70;99.90;;;;;;5012561;28;20033;-75
2024/04/02 06:37:33;;;;;;;16.15;7.30;;;8.70;99.90;;;;;;5013841;28;20030;-72
2024/04/02 06:40:00;;;;;;;13.63;7.57;;;8.70;99.90;;;;;;5013326;28;20045;-76
2024/04/02 06:42:26;;;;;;;10.27;6.30;;;8.80;99.90;;;;;;5015245;28;20023;-73
2024/04/02 06:44:54;;;;;;;12.30;7.22;;;8.80;99.90;;;;;;5013354;28;20036;-73
2024/04/02 06:47:20;;;;;;;10.82;6.47;;;8.80;99.90;;;;;;5012036;28;20394;-76
2024/04/02 06:49:45;;;;;;;11.63;6.68;;;8.90;99.90;;;;;;5011656;28;20038;-76
2024/04/02 06:52:11;;;;;;;13.20;6.80;;;8.90;99.90;;;;;;5011794;28;20060;-73
2024/04/02 06:54:37;;;;;;;10.65;6.38;;;9.00;99.90;;;;;;5012858;28;20026;-72
2024/04/02 06:57:02;;;;;;;11.60;6.30;;;9.00;99.90;;;;;;5009696;28;20038;-76
2024/04/02 06:59:29;;;;;;;14.82;6.53;;;9.10;99.90;;;;;;5010077;28;20022;-75
2024/04/02 07:01:55;;;;;;;15.23;6.78;;;9.10;99.90;;;;;;5013732;28;20036;-73
2024/04/02 07:04:20;;;;;;;13.57;5.57;;;9.20;99.90;;;;;;5012096;28;20113;-74
2024/04/02 07:06:46;;;;;;;10.18;6.07;;;9.20;99.90;;;;;;5011139;28;20068;-76
2024/04/02 07:09:11;;;;;;;13.32;5.65;;;9.30;99.90;;;;;;5012851;28;20046;-75
2024/04/02 07:11:37;;;;;;;10.48;6.03;;;9.30;99.90;;;;;;5013223;28;20022;-75
2024/04/02 07:14:02;;;;;;;13.23;6.40;;;9.40;99.90;;;;;;5013055;28;20044;-74
2024/04/02 07:16:28;;;;;;;11.38;5.95;;;9.40;99.90;;;;;;5012224;28;20069;-75
2024/04/02 07:18:54;;;;;;;10.18;5.95;;;9.50;99.90;;;;;;5013054;28;20390;-73
2024/04/02 07:21:19;;;;;;;13.95;6.35;;;9.50;99.90;;;;;;5013491;28;20136;-74
2024/04/02 07:23:45;;;;;;;11.25;6.15;;;9.60;99.90;;;;;;5013459;28;20053;-74
2024/04/02 07:26:10;;;;;;;8.38;5.20;;;9.70;99.90;;;;;;5012880;28;20030;-76
2024/04/02 07:28:36;;;;;;;11.75;5.85;;;9.80;99.90;;;;;;5012242;28;20064;-74
2024/04/02 07:31:02;;;;;;;11.90;5.65;;;9.70;99.90;;;;;;5012041;28;20040;-75
2024/04/02 07:33:27;;;;;;;12.23;5.03;;;9.90;99.90;;;;;;5011622;28;20026;-76
2024/04/02 07:35:56;;;;;;;9.85;5.35;;;9.90;99.90;;;;;;5012271;28;20057;-74
2024/04/02 07:38:22;;;;;;;13.15;5.30;;;10.00;99.90;;;;;;5011058;28;20085;-75
2024/04/02 07:40:48;;;;;;;7.82;4.80;;;10.10;99.90;;;;;;5012331;28;20018;-75
2024/04/02 07:43:13;;;;;;;12.27;5.60;;;10.10;99.90;;;;;;5012375;28;20026;-76
2024/04/02 07:45:39;;;;;;;11.23;5.68;;;10.20;99.90;;;;;;5012284;28;20121;-76
2024/04/02 07:48:05;;;;;;;10.32;4.97;;;10.30;99.90;;;;;;5012509;28;20042;-75
2024/04/02 07:50:33;;;;;;;8.68;3.83;;;10.40;99.90;;;;;;5011062;28;20025;-76
2024/04/02 07:52:58;;;;;;;14.65;4.60;;;10.30;99.90;;;;;;5011759;28;20120;-76
2024/04/02 07:55:24;;;;;;;11.30;5.10;;;10.40;99.90;;;;;;5011605;28;20711;-74
2024/04/02 07:57:50;;;;;;;10.98;4.78;;;10.50;99.90;;;;;;5026710;28;20045;-74
2024/04/02 08:00:17;;;;;;;8.00;4.07;;;10.50;99.90;;;;;;5012170;28;20615;-72
2024/04/02 08:02:43;;;;;;;9.50;4.70;;;10.60;99.90;;;;;;5012854;28;20043;-74
2024/04/02 08:05:09;;;;;;;11.48;4.78;;;10.60;99.90;;;;;;5011609;28;20026;-75
2024/04/02 08:07:34;;;;;;;10.32;4.40;;;10.70;99.90;;;;;;5012576;28;20069;-74
2024/04/02 08:10:03;;;;;;;8.32;4.28;;;10.80;99.90;;;;;;5012076;28;20046;-74
2024/04/02 08:12:28;;;;;;;7.80;3.92;;;11.00;99.90;;;;;;5009895;28;20033;-72
2024/04/02 08:14:54;;;;;;;9.00;4.43;;;11.20;99.90;;;;;;5013100;28;20022;-74
2024/04/02 08:17:19;;;;;;;10.20;4.30;;;11.50;99.90;;;;;;5017669;28;20034;-74
2024/04/02 08:19:45;;;;;;;10.57;4.93;;;11.70;99.90;;;;;;5013421;28;20025;-73
2024/04/02 08:22:12;;;;;;;8.65;4.72;;;11.80;99.90;;;;;;5016760;28;20087;-76
2024/04/02 08:24:38;;;;;;;9.07;4.13;;;11.90;99.90;;;;;;5017579;28;20037;-74
2024/04/02 08:27:05;;;;;;;9.55;4.07;;;12.00;99.90;;;;;;5014512;28;20133;-73
2024/04/02 08:29:30;;;;;;;6.88;4.40;;;12.10;99.90;;;;;;5014693;28;20508;-73
2024/04/02 08:31:56;;;;;;;7.18;4.35;;;12.20;99.90;;;;;;5014841;28;20030;-77
2024/04/02 08:34:22;;;;;;;6.80;4.70;;;12.30;99.90;;;;;;5015593;28;20038;-79
2024/04/02 08:36:47;;;;;;;6.50;4.28;;;12.40;99.90;;;;;;5014056;28;20022;-79
2024/04/02 08:39:13;;;;;;;7.40;4.15;;;12.50;99.90;;;;;;5016718;28;20175;-76
2024/04/02 08:41:41;;;;;;;8.10;4.30;;;12.60;99.90;;;;;;5015308;28;20022;-77
2024/04/02 08:44:07;;;;;;;9.40;4.10;;;12.80;99.90;;;;;;5015961;28;20098;-76
2024/04/02 08:46:33;;;;;;;6.88;4.55;;;12.80;99.90;;;;;;5015655;28;20030;-73
2024/04/02 08:48:59;;;;;;;6.32;4.25;;;12.70;99.90;;;;;;5015289;28;20046;-73
2024/04/02 08:51:28;;;;;;;7.47;4.28;;;12.60;99.90;;;;;;5014892;28;20041;-74
2024/04/02 08:53:54;;;;;;;9.18;4.00;;;12.60;99.90;;;;;;5013028;28;20034;-74
2024/04/02 08:56:19;;;;;;;9.43;4.10;;;12.60;99.90;;;;;;5015414;28;20026;-76
2024/04/02 08:58:49;;;;;;;7.55;4.43;;;12.70;99.90;;;;;;5015488;28;20041;-76
2024/04/02 09:01:14;;;;;;;8.40;4.22;;;12.60;99.90;;;;;;5015528;28;20027;-76
2024/04/02 09:03:41;;;;;;;7.07;3.90;;;12.50;99.90;;;;;;5015322;28;20137;-76
2024/04/02 09:06:07;;;;;;;6.13;4.35;;;12.40;99.90;;;;;;5014694;28;20397;-77
2024/04/02 09:08:43;;;;;;;7.53;3.83;;;12.60;99.90;;;;;;5012991;28;20102;-72
2024/04/02 09:11:09;;;;;;;7.28;3.97;;;12.60;99.90;;;;;;5013981;28;20143;-74
2024/04/02 09:13:34;;;;;;;7.85;4.28;;;12.70;99.90;;;;;;5013726;28;20026;-75
2024/04/02 09:16:00;;;;;;;4.60;3.53;;;12.90;99.90;;;;;;5014333;28;20132;-77
2024/04/02 09:18:30;;;;;;;6.32;4.22;;;13.10;99.90;;;;;;5014901;28;20030;-75
2024/04/02 09:20:56;;;;;;;7.18;4.00;;;13.00;99.90;;;;;;5015823;28;20036;-78
2024/04/02 09:23:22;;;;;;;7.72;4.00;;;12.80;99.90;;;;;;5013281;28;20056;-79
2024/04/02 09:25:50;;;;;;;8.30;3.60;;;13.10;99.90;;;;;;5012730;28;20022;-73
2024/04/02 09:28:15;;;;;;;7.30;3.80;;;13.30;99.90;;;;;;5012959;28;20042;-75
2024/04/02 09:30:41;;;;;;;8.55;3.90;;;13.60;99.90;;;;;;5014212;28;20723;-74
2024/04/02 09:33:08;;;;;;;8.40;3.63;;;13.60;99.90;;;;;;5012918;28;20022;-75
2024/04/02 09:35:54;;;;;;;4.82;3.30;;;13.40;99.90;;;;;;5013482;28;20027;-76
2024/04/02 09:38:22;;;;;;;5.93;3.67;;;13.20;99.90;;;;;;5014663;28;20026;-76
2024/04/02 09:40:53;;;;;;;5.28;3.20;;;13.00;99.90;;;;;;5013907;28;20061;-74
2024/04/02 09:43:20;;;;;;;5.07;3.85;;;12.90;99.90;;;;;;5012685;28;20053;-76
2024/04/02 09:45:48;;;;;;;7.25;3.33;;;12.70;99.90;;;;;;5013363;28;20026;-76
2024/04/02 09:48:16;;;;;;;4.72;3.35;;;12.70;99.90;;;;;;5011378;28;20038;-78
2024/04/02 09:50:43;;;;;;;4.55;3.17;;;12.70;99.90;;;;;;5012396;28;20022;-75
2024/04/02 09:53:10;;;;;;;8.00;4.07;;;12.80;99.90;;;;;;5011984;28;20487;-73
2024/04/02 09:55:36;;;;;;;8.30;3.53;;;12.90;99.90;;;;;;5013207;28;20045;-74
2024/04/02 09:58:02;;;;;;;6.53;3.35;;;13.30;99.90;;;;;;5011988;28;20088;-75
2024/04/02 10:00:31;;;;;;;5.05;2.97;;;13.50;99.90;;;;;;5012095;28;20389;-75
2024/04/02 10:03:00;;;;;;;8.73;3.05;;;13.80;99.90;;;;;;5012208;28;20030;-70
2024/04/02 10:05:26;;;;;;;5.20;2.92;;;14.20;99.90;;;;;;5013918;28;20026;-73
2024/04/02 10:07:51;;;;;;;4.45;2.95;;;14.20;99.90;;;;;;5013640;28;20127;-73
2024/04/02 10:10:17;;;;;;;8.07;3.13;;;14.40;99.90;;;;;;5011956;28;20022;-76
2024/04/02 10:12:53;;;;;;;5.80;3.05;;;14.30;99.90;;;;;;5012572;28;20065;-75
2024/04/02 10:15:19;;;;;;;6.88;3.38;;;14.10;99.90;;;;;;5012917;28;20018;-71
2024/04/02 10:17:45;;;;;;;7.32;3.10;;;13.90;99.90;;;;;;5013364;28;20474;-74
2024/04/02 10:20:31;;;;;;;7.03;3.20;;;13.80;99.90;;;;;;5013847;28;20038;-76
2024/04/02 10:22:58;;;;;;;6.50;3.17;;;13.80;99.90;;;;;;5012797;28;20082;-75
2024/04/02 10:25:25;;;;;;;5.72;3.20;;;13.80;99.90;;;;;;5013602;28;20062;-75
2024/04/02 10:27:57;;;;;;;8.52;3.70;;;13.70;99.90;;;;;;5011412;28;20026;-78
2024/04/02 10:30:27;;;;;;;6.15;3.58;;;13.50;99.90;;;;;;5012898;28;20030;-75
2024/04/02 10:32:54;;;;;;;6.38;3.25;;;13.40;99.90;;;;;;5012985;28;20037;-75
2024/04/02 10:35:29;;;;;;;9.65;3.50;;;13.50;99.90;;;;;;5013260;28;20471;-74
2024/04/02 10:37:56;;;;;;;5.93;3.30;;;13.40;99.90;;;;;;5012119;28;20044;-75
2024/04/02 10:40:23;;;;;;;6.88;3.88;;;13.20;99.90;;;;;;5011623;28;20034;-75
2024/04/02 10:42:51;;;;;;;10.73;4.00;;;13.10;99.90;;;;;;5012205;28;20539;-79
2024/04/02 10:45:17;;;;;;;7.28;4.25;;;12.80;99.90;;;;;;5010833;28;20029;-76
2024/04/02 10:47:56;;;;;;;9.52;4.25;;;12.70;99.90;;;;;;5012035;28;20022;-78
2024/04/02 10:50:23;;;;;;;8.57;4.22;;;12.70;99.90;;;;;;5027191;28;20050;-79
2024/04/02 10:52:49;;;;;;;8.07;4.38;;;12.50;99.90;;;;;;5012722;28;20034;-74
2024/04/02 10:55:15;;;;;;;9.07;4.10;;;12.50;99.90;;;;;;5012285;28;20053;-78
2024/04/02 10:57:41;;;;;;;13.20;4.97;;;12.50;99.90;;;;;;5012909;28;20088;-79
2024/04/02 11:00:09;;;;;;;8.15;4.22;;;12.70;99.90;;;;;;5010340;28;20407;-78
2024/04/02 11:02:36;;;;;;;10.70;5.18;;;12.80;99.90;;;;;;5011689;28;20706;-80
2024/04/02 11:05:03;;;;;;;8.35;4.07;;;12.80;99.90;;;;;;5010813;28;20050;-77
2024/04/02 11:07:30;;;;;;;8.63;5.03;;;12.90;99.90;;;;;;5011709;28;20438;-76
2024/04/02 11:09:56;;;;;;;10.55;5.00;;;13.00;99.90;;;;;;5011444;28;20490;-79
2024/04/02 11:12:23;;;;;;;12.68;5.40;;;13.10;99.90;;;;;;5010692;28;20036;-72
2024/04/02 11:14:55;;;;;;;16.13;5.72;;;13.00;99.90;;;;;;5010867;28;20022;-75
2024/04/02 11:17:22;;;;;;;8.63;5.07;;;12.90;99.90;;;;;;5012116;28;20030;-75
2024/04/02 11:19:48;;;;;;;11.85;5.65;;;12.90;99.90;;;;;;5010409;28;20026;-80
2024/04/02 11:25:11;;;;;;;10.73;5.60;;;12.60;99.90;;;;;;5013825;28;20045;-77
2024/04/02 11:27:38;;;;;;;10.95;5.57;;;12.50;99.90;;;;;;5010346;28;20038;-76
2024/04/02 11:30:06;;;;;;;9.15;4.70;;;12.40;99.90;;;;;;5010577;28;20051;-73
2024/04/02 11:32:33;;;;;;;11.25;4.70;;;12.30;99.90;;;;;;5011421;28;20149;-76
2024/04/02 11:35:03;;;;;;;10.77;5.30;;;12.30;99.90;;;;;;5010893;28;20065;-72
2024/04/02 11:37:30;;;;;;;12.55;5.30;;;12.50;99.90;;;;;;5011286;28;20033;-73
2024/04/02 11:39:56;;;;;;;11.13;5.05;;;12.80;99.90;;;;;;5010087;28;20054;-74
2024/04/02 11:42:23;;;;;;;7.63;4.63;;;13.10;99.90;;;;;;5010106;28;20160;-73
2024/04/02 11:45:11;;;;;;;11.82;4.90;;;13.30;99.90;;;;;;5012503;28;20064;-75
2024/04/02 11:47:37;;;;;;;8.60;4.22;;;13.60;99.90;;;;;;5009850;28;20030;-71
2024/04/02 11:50:04;;;;;;;8.55;4.40;;;13.70;99.90;;;;;;5011081;28;20084;-73
2024/04/02 11:52:32;;;;;;;8.57;4.30;;;13.60;99.90;;;;;;5011493;28;20019;-73
2024/04/02 11:54:57;;;;;;;8.98;3.97;;;13.60;99.90;;;;;;5011100;28;20018;-74
2024/04/02 12:00:17;;;;;;;8.93;3.58;;;13.20;99.90;;;;;;5011440;28;20163;-73
2024/04/02 12:02:47;;;;;;;9.82;4.25;;;13.20;99.90;;;;;;5009598;28;20030;-73
2024/04/02 12:05:15;;;;;;;8.88;3.83;;;13.10;99.90;;;;;;5010185;28;20479;-75
2024/04/02 12:07:41;;;;;;;10.23;3.85;;;12.90;99.90;;;;;;5008359;28;20037;-74
2024/04/02 12:10:10;;;;;;;5.85;3.85;;;12.80;99.90;;;;;;5010258;28;20140;-76
2024/04/02 12:12:36;;;;;;;9.80;3.75;;;12.70;99.90;;;;;;5017074;28;20037;-73
2024/04/02 12:15:05;;;;;;;8.32;3.63;;;12.60;99.90;;;;;;5010915;28;20084;-74
2024/04/02 12:17:31;;;;;;;7.05;3.97;;;12.50;99.90;;;;;;5009849;28;21266;-74
2024/04/02 12:19:56;;;;;;;7.57;4.07;;;12.40;99.90;;;;;;5012419;28;20046;-74
2024/04/02 12:22:22;;;;;;;8.68;4.70;;;12.30;99.90;;;;;;5011720;28;20025;-74
2024/04/02 12:24:48;;;;;;;15.35;4.65;;;12.20;99.90;;;;;;5010583;28;20122;-73
2024/04/02 12:27:14;;;;;;;7.97;4.22;;;12.20;99.90;;;;;;5011398;28;20114;-76
2024/04/02 12:29:40;;;;;;;16.13;4.10;;;12.20;99.90;;;;;;5012316;28;20062;-74
2024/04/02 12:32:07;;;;;;;8.43;4.03;;;12.20;99.90;;;;;;5012787;28;20037;-75
2024/04/02 12:34:37;;;;;;;9.55;4.35;;;12.30;99.90;;;;;;5010826;28;20029;-73
2024/04/02 12:37:03;;;;;;;15.15;4.55;;;12.30;99.90;;;;;;5012034;28;20034;-75
2024/04/02 12:39:30;;;;;;;9.60;4.20;;;12.40;99.90;;;;;;5013198;28;20121;-74
2024/04/02 12:41:56;;;;;;;11.23;4.05;;;12.40;99.90;;;;;;5010910;28;20015;-75
2024/04/02 12:44:21;;;;;;;13.23;4.00;;;12.40;99.90;;;;;;5013368;28;20038;-75